createdAt,value
2023-02-03T00:01:27.591Z,1.67
2023-02-03T00:03:54.251Z,0.93
2023-02-03T00:06:21.050Z,0.60
2023-02-03T00:08:47.758Z,0.90
2023-02-03T00:11:14.675Z,0.90
2023-02-03T00:13:41.374Z,1.00
2023-02-03T00:16:08.193Z,1.20
2023-02-03T00:18:34.820Z,0.80
2023-02-03T00:21:02.943Z,0.77
2023-02-03T00:23:31.986Z,1.37
2023-02-03T00:26:06.811Z,1.13
2023-02-03T00:28:33.502Z,0.63
2023-02-03T00:31:00.189Z,0.90
2023-02-03T00:33:26.869Z,0.60
2023-02-03T00:35:53.617Z,0.60
2023-02-03T00:38:20.249Z,0.70
2023-02-03T00:40:53.634Z,0.67
2023-02-03T00:43:21.095Z,0.60
2023-02-03T00:45:47.949Z,0.57
2023-02-03T00:48:14.634Z,0.70
2023-02-03T00:50:41.522Z,0.60
2023-02-03T00:53:08.389Z,1.23
2023-02-03T00:55:35.153Z,0.60
2023-02-03T00:58:01.936Z,0.63
2023-02-03T01:00:28.869Z,0.57
2023-02-03T01:02:55.645Z,0.67
2023-02-03T01:05:22.287Z,0.60
2023-02-03T01:07:48.925Z,0.60
2023-02-03T01:10:15.802Z,0.63
2023-02-03T01:12:42.449Z,1.40
2023-02-03T01:15:09.278Z,0.60
2023-02-03T01:17:35.966Z,0.70
2023-02-03T01:20:02.885Z,0.63
2023-02-03T01:22:30.725Z,0.60
2023-02-03T01:24:57.364Z,0.73
2023-02-03T01:27:24.203Z,0.60
2023-02-03T01:29:50.844Z,0.70
2023-02-03T01:32:17.545Z,0.77
2023-02-03T01:34:44.245Z,0.50
2023-02-03T01:37:10.979Z,0.60
2023-02-03T01:39:37.636Z,0.40
2023-02-03T01:42:04.295Z,0.83
2023-02-03T01:44:44.943Z,0.57
2023-02-03T01:47:14.426Z,0.70
2023-02-03T01:49:44.408Z,0.70
2023-02-03T01:52:11.597Z,0.70
2023-02-03T01:54:42.620Z,0.60
2023-02-03T01:57:17.322Z,0.60
2023-02-03T01:59:44.082Z,0.63
2023-02-03T02:02:12.562Z,0.60
2023-02-03T02:05:18.304Z,0.90
2023-02-03T02:07:45.620Z,0.60
2023-02-03T02:10:12.411Z,0.50
2023-02-03T02:12:39.429Z,0.60
2023-02-03T02:15:06.845Z,0.70
2023-02-03T02:17:50.464Z,0.63
2023-02-03T02:20:38.653Z,1.03
2023-02-03T02:23:23.145Z,0.70
2023-02-03T02:26:32.210Z,0.80
2023-02-03T02:29:23.406Z,1.03
2023-02-03T02:31:56.316Z,0.70
2023-02-03T02:34:40.144Z,0.70
2023-02-03T02:37:19.913Z,0.70
2023-02-03T02:39:52.822Z,1.07
2023-02-03T02:42:27.150Z,3.80
2023-02-03T02:44:59.432Z,1.33
2023-02-03T02:47:26.061Z,0.70
2023-02-03T02:50:01.407Z,1.77
2023-02-03T02:52:31.242Z,0.87
2023-02-03T02:55:03.693Z,1.07
2023-02-03T02:57:31.687Z,1.50
2023-02-03T02:59:58.435Z,0.80
2023-02-03T03:02:33.861Z,0.97
2023-02-03T03:05:01.500Z,0.93
2023-02-03T03:07:29.169Z,0.73
2023-02-03T03:10:00.731Z,0.77
2023-02-03T03:12:38.116Z,0.60
2023-02-03T03:15:08.300Z,0.60
2023-02-03T03:17:40.745Z,1.07
2023-02-03T03:20:14.082Z,0.60
2023-02-03T03:23:02.795Z,0.80
2023-02-03T03:25:36.285Z,0.90
2023-02-03T03:28:06.484Z,0.70
2023-02-03T03:30:39.357Z,0.60
2023-02-03T03:33:10.669Z,0.70
2023-02-03T03:36:04.958Z,1.10
2023-02-03T03:38:44.211Z,0.60
2023-02-03T03:41:39.519Z,0.60
2023-02-03T03:44:11.313Z,0.70
2023-02-03T03:46:52.152Z,0.80
2023-02-03T03:49:20.198Z,0.70
2023-02-03T03:51:50.368Z,0.60
2023-02-03T03:54:20.484Z,0.37
2023-02-03T03:56:50.734Z,0.53
2023-02-03T03:59:20.843Z,0.67
2023-02-03T04:01:48.798Z,0.50
2023-02-03T04:04:16.213Z,0.60
2023-02-03T04:06:42.844Z,0.57
2023-02-03T04:09:09.553Z,0.70
2023-02-03T04:11:54.676Z,0.50
2023-02-03T04:14:21.389Z,0.63
2023-02-03T04:16:48.049Z,0.40
2023-02-03T04:19:14.669Z,0.50
2023-02-03T04:21:41.367Z,0.50
2023-02-03T04:24:08.152Z,0.57
2023-02-03T04:26:34.856Z,0.40
2023-02-03T04:29:01.509Z,0.73
2023-02-03T04:31:28.260Z,0.60
2023-02-03T04:33:55.065Z,0.67
2023-02-03T04:36:22.107Z,0.50
2023-02-03T04:38:49.571Z,0.30
2023-02-03T04:41:16.830Z,0.50
2023-02-03T04:43:43.653Z,0.50
2023-02-03T04:46:10.533Z,0.50
2023-02-03T04:48:37.631Z,0.50
2023-02-03T04:51:06.125Z,1.30
2023-02-03T04:53:33.160Z,0.50
2023-02-03T04:56:00.109Z,0.87
2023-02-03T04:58:27.175Z,0.57
2023-02-03T05:00:54.568Z,0.40
2023-02-03T05:03:24.151Z,0.53
2023-02-03T05:05:52.446Z,0.60
2023-02-03T05:08:19.128Z,0.40
2023-02-03T05:10:45.779Z,0.57
2023-02-03T05:13:12.468Z,0.30
2023-02-03T05:15:39.420Z,0.40
2023-02-03T05:18:06.396Z,0.50
2023-02-03T05:20:33.127Z,0.40
2023-02-03T05:23:01.148Z,0.30
2023-02-03T05:25:27.958Z,0.40
2023-02-03T05:27:54.647Z,0.40
2023-02-03T05:30:21.434Z,0.40
2023-02-03T05:32:49.289Z,0.40
2023-02-03T05:35:16.072Z,0.40
2023-02-03T05:37:45.850Z,0.47
2023-02-03T05:40:48.849Z,0.40
2023-02-03T05:43:15.602Z,0.33
2023-02-03T05:45:42.251Z,0.83
2023-02-03T05:48:09.245Z,0.30
2023-02-03T05:50:38.561Z,0.50
2023-02-03T05:53:06.293Z,1.70
2023-02-03T05:55:33.265Z,0.37
2023-02-03T05:58:01.025Z,0.60
2023-02-03T06:00:28.578Z,0.43
2023-02-03T06:02:57.199Z,0.83
2023-02-03T06:05:24.335Z,0.40
2023-02-03T06:07:51.621Z,0.40
2023-02-03T06:10:18.873Z,0.50
2023-02-03T06:12:45.589Z,0.50
2023-02-03T06:15:12.222Z,0.97
2023-02-03T06:17:38.887Z,0.50
2023-02-03T06:20:09.497Z,0.50
2023-02-03T06:22:36.121Z,0.63
2023-02-03T06:25:02.867Z,0.50
2023-02-03T06:27:29.505Z,0.60
2023-02-03T06:29:56.247Z,0.40
2023-02-03T06:32:22.884Z,0.50
2023-02-03T06:34:49.552Z,0.30
2023-02-03T06:37:16.359Z,0.70
2023-02-03T06:39:42.982Z,0.57
2023-02-03T06:42:09.655Z,0.40
2023-02-03T06:44:36.334Z,0.87
2023-02-03T06:47:03.177Z,1.53
2023-02-03T06:49:30.273Z,0.50
2023-02-03T06:51:57.084Z,0.50
2023-02-03T06:54:23.756Z,0.63
2023-02-03T06:56:50.399Z,0.60
2023-02-03T06:59:17.080Z,0.60
2023-02-03T07:01:43.761Z,0.70
2023-02-03T07:04:10.444Z,0.60
2023-02-03T07:06:37.091Z,0.70
2023-02-03T07:09:05.149Z,1.07
2023-02-03T07:11:32.334Z,0.83
2023-02-03T07:13:59.172Z,1.13
2023-02-03T07:16:27.469Z,1.87
2023-02-03T07:18:54.141Z,0.70
2023-02-03T07:21:20.868Z,0.67
2023-02-03T07:23:48.650Z,1.27
2023-02-03T07:26:15.975Z,0.97
2023-02-03T07:28:42.800Z,0.60
2023-02-03T07:31:10.424Z,1.03
2023-02-03T07:33:38.121Z,0.67
2023-02-03T07:36:05.217Z,1.00
2023-02-03T07:38:32.251Z,0.60
2023-02-03T07:40:58.926Z,1.10
2023-02-03T07:43:25.641Z,0.83
2023-02-03T07:45:52.330Z,0.87
2023-02-03T07:48:19.042Z,1.23
2023-02-03T07:50:47.399Z,0.80
2023-02-03T07:53:14.193Z,1.63
2023-02-03T07:55:40.908Z,0.60
2023-02-03T07:58:07.826Z,0.70
2023-02-03T08:00:34.788Z,1.10
2023-02-03T08:03:01.629Z,0.63
2023-02-03T08:05:29.394Z,0.80
2023-02-03T08:07:56.902Z,0.70
2023-02-03T08:10:23.544Z,0.70
2023-02-03T08:12:53.883Z,0.93
2023-02-03T08:15:20.799Z,1.33
2023-02-03T08:17:49.332Z,1.40
2023-02-03T08:20:16.631Z,0.60
2023-02-03T08:22:43.424Z,0.63
2023-02-03T08:25:10.912Z,0.77
2023-02-03T08:27:38.674Z,0.70
2023-02-03T08:30:06.776Z,0.90
2023-02-03T08:32:34.179Z,0.90
2023-02-03T08:35:00.803Z,0.87
2023-02-03T08:37:28.305Z,1.20
2023-02-03T08:39:55.059Z,0.70
2023-02-03T08:42:21.820Z,0.73
2023-02-03T08:44:49.248Z,0.70
2023-02-03T08:47:16.189Z,0.60
2023-02-03T08:49:43.255Z,1.03
2023-02-03T08:52:12.702Z,0.57
2023-02-03T08:54:39.649Z,0.80
2023-02-03T08:57:07.210Z,0.80
2023-02-03T08:59:36.168Z,0.77
2023-02-03T09:02:07.038Z,1.17
2023-02-03T09:04:33.894Z,0.80
2023-02-03T09:07:03.782Z,0.70
2023-02-03T09:09:31.897Z,0.80
2023-02-03T09:12:02.322Z,0.77
2023-02-03T09:14:33.238Z,0.70
2023-02-03T09:17:01.722Z,0.60
2023-02-03T09:19:28.337Z,0.70
2023-02-03T09:21:56.733Z,0.60
2023-02-03T09:24:24.275Z,0.80
2023-02-03T09:26:51.341Z,1.03
2023-02-03T09:29:17.998Z,0.60
2023-02-03T09:31:46.978Z,0.73
2023-02-03T09:34:13.736Z,0.63
2023-02-03T09:36:41.910Z,0.80
2023-02-03T09:39:09.635Z,0.70
2023-02-03T09:41:57.375Z,0.70
2023-02-03T09:44:34.468Z,1.03
2023-02-03T09:47:04.261Z,1.70
2023-02-03T09:49:33.712Z,0.73
2023-02-03T09:52:09.254Z,1.50
2023-02-03T09:54:48.034Z,0.60
2023-02-03T09:57:23.858Z,0.93
2023-02-03T09:59:51.299Z,0.70
2023-02-03T10:02:39.969Z,0.90
2023-02-03T10:05:17.860Z,0.90
2023-02-03T10:07:58.954Z,0.60
2023-02-03T10:10:45.326Z,0.50
2023-02-03T10:13:28.872Z,0.63
2023-02-03T10:16:22.133Z,0.77
2023-02-03T10:18:54.754Z,0.60
2023-02-03T10:21:25.375Z,1.27
2023-02-03T10:23:55.063Z,0.63
2023-02-03T10:26:24.326Z,0.40
2023-02-03T10:28:55.278Z,0.40
2023-02-03T10:31:24.657Z,0.40
2023-02-03T10:34:15.605Z,0.60
2023-02-03T10:37:23.208Z,0.43
2023-02-03T10:39:53.530Z,0.40
2023-02-03T10:42:22.159Z,0.40
2023-02-03T10:44:56.340Z,0.40
2023-02-03T10:47:34.783Z,0.70
2023-02-03T10:50:19.598Z,0.70
2023-02-03T10:52:46.606Z,0.50
2023-02-03T10:55:25.248Z,0.60
2023-02-03T10:57:53.270Z,0.50
2023-02-03T11:00:28.834Z,0.83
2023-02-03T11:03:06.366Z,0.40
2023-02-03T11:05:33.332Z,1.00
2023-02-03T11:08:00.242Z,0.60
2023-02-03T11:10:27.230Z,0.77
2023-02-03T11:13:19.333Z,0.60
2023-02-03T11:16:02.075Z,0.67
2023-02-03T11:18:47.314Z,0.53
2023-02-03T11:21:16.227Z,0.40
2023-02-03T11:23:53.441Z,0.57
2023-02-03T11:26:41.675Z,0.93
2023-02-03T11:29:19.440Z,0.50
2023-02-03T11:31:51.439Z,0.93
2023-02-03T11:34:31.339Z,0.40
2023-02-03T11:36:58.149Z,0.47
2023-02-03T11:39:29.292Z,0.70
2023-02-03T11:41:56.532Z,0.60
2023-02-03T11:44:29.410Z,0.50
2023-02-03T11:47:00.193Z,0.40
2023-02-03T11:49:29.986Z,0.40
2023-02-03T11:52:02.489Z,0.30
2023-02-03T11:54:35.063Z,0.50
2023-02-03T11:57:37.582Z,0.50
2023-02-03T12:00:13.434Z,0.40
2023-02-03T12:03:12.747Z,0.50
2023-02-03T12:06:27.891Z,0.40
2023-02-03T12:09:13.156Z,0.37
2023-02-03T12:12:01.849Z,0.37
2023-02-03T12:14:31.221Z,0.43
2023-02-03T12:17:16.748Z,0.40
2023-02-03T12:20:06.809Z,0.67
2023-02-03T12:22:59.190Z,0.40
2023-02-03T12:25:47.756Z,0.30
2023-02-03T12:28:33.984Z,0.60
2023-02-03T12:31:08.065Z,0.30
2023-02-03T12:33:44.309Z,0.40
2023-02-03T12:36:19.172Z,0.60
2023-02-03T12:39:18.074Z,1.23
2023-02-03T12:41:51.006Z,1.00
2023-02-03T12:44:26.663Z,0.60
2023-02-03T12:47:06.583Z,0.47
2023-02-03T12:49:44.431Z,0.60
2023-02-03T12:52:22.982Z,0.40
2023-02-03T12:55:32.687Z,0.50
2023-02-03T12:58:03.905Z,0.67
2023-02-03T13:01:00.663Z,0.50
2023-02-03T13:03:36.034Z,0.50
2023-02-03T13:06:15.217Z,0.67
2023-02-03T13:08:49.274Z,1.13
2023-02-03T13:11:28.435Z,0.50
2023-02-03T13:13:57.370Z,0.70
2023-02-03T13:16:30.032Z,0.87
2023-02-03T13:19:05.813Z,0.60
2023-02-03T13:21:32.723Z,0.40
2023-02-03T13:23:59.450Z,0.50
2023-02-03T13:26:38.789Z,0.47
2023-02-03T13:29:24.290Z,0.70
2023-02-03T13:32:13.970Z,0.70
2023-02-03T13:35:09.603Z,0.80
2023-02-03T13:37:49.494Z,0.70
2023-02-03T13:40:28.310Z,0.60
2023-02-03T13:43:05.986Z,0.40
2023-02-03T13:45:38.814Z,0.83
2023-02-03T13:48:17.278Z,0.50
2023-02-03T13:50:44.699Z,1.43
2023-02-03T13:53:25.702Z,1.33
2023-02-03T13:55:57.867Z,1.47
2023-02-03T13:58:31.101Z,0.70
2023-02-03T14:01:06.182Z,0.60
2023-02-03T14:03:35.779Z,0.67
2023-02-03T14:06:03.559Z,0.53
2023-02-03T14:08:30.155Z,0.60
2023-02-03T14:11:34.335Z,0.70
2023-02-03T14:14:10.052Z,0.50
2023-02-03T14:16:45.024Z,1.40
2023-02-03T14:19:29.726Z,0.60
2023-02-03T14:22:00.098Z,1.03
2023-02-03T14:24:34.849Z,0.50
2023-02-03T14:27:04.640Z,0.47
2023-02-03T14:29:35.032Z,0.70
2023-02-03T14:32:01.772Z,0.60
2023-02-03T14:34:34.465Z,0.77
2023-02-03T14:37:21.944Z,0.50
2023-02-03T14:40:16.377Z,0.60
2023-02-03T14:43:20.283Z,0.50
2023-02-03T14:46:26.386Z,1.60
2023-02-03T14:48:55.776Z,1.00
2023-02-03T14:51:40.232Z,0.60
2023-02-03T14:54:39.069Z,0.67
2023-02-03T14:57:45.493Z,0.70
2023-02-03T15:00:22.360Z,0.40
2023-02-03T15:03:10.173Z,0.97
2023-02-03T15:05:44.234Z,0.40
2023-02-03T15:08:33.419Z,0.53
2023-02-03T15:11:00.828Z,0.43
2023-02-03T15:13:31.491Z,0.30
2023-02-03T15:16:01.739Z,0.50
2023-02-03T15:18:30.150Z,0.53
2023-02-03T15:20:57.280Z,0.50
2023-02-03T15:23:27.160Z,0.50
2023-02-03T15:26:01.745Z,0.60
2023-02-03T15:28:30.033Z,0.50
2023-02-03T15:31:09.906Z,0.50
2023-02-03T15:33:38.651Z,0.50
2023-02-03T15:36:23.101Z,0.60
2023-02-03T15:38:56.291Z,0.43
2023-02-03T15:41:24.504Z,0.37
2023-02-03T15:43:55.208Z,0.50
2023-02-03T15:46:24.642Z,0.43
2023-02-03T15:48:52.700Z,0.60
2023-02-03T15:51:32.228Z,0.50
2023-02-03T15:54:11.771Z,0.67
2023-02-03T15:56:43.814Z,0.43
2023-02-03T15:59:30.450Z,1.20
2023-02-03T16:01:57.381Z,0.60
2023-02-03T16:04:24.752Z,0.53
2023-02-03T16:06:53.113Z,0.77
2023-02-03T16:09:47.676Z,0.60
2023-02-03T16:12:19.064Z,0.80
2023-02-03T16:14:46.992Z,0.77
2023-02-03T16:17:37.173Z,0.67
2023-02-03T16:20:12.779Z,0.80
2023-02-03T16:22:41.963Z,0.90
2023-02-03T16:25:19.566Z,1.03
2023-02-03T16:28:33.878Z,1.37
2023-02-03T16:31:21.044Z,1.07
2023-02-03T16:34:09.215Z,0.90
2023-02-03T16:36:59.689Z,0.73
2023-02-03T16:39:45.599Z,0.80
2023-02-03T16:42:40.303Z,0.97
2023-02-03T16:45:32.946Z,0.83
2023-02-03T16:48:19.243Z,0.70
2023-02-03T16:50:52.951Z,0.80
2023-02-03T16:53:23.323Z,0.87
2023-02-03T16:55:50.877Z,0.83
2023-02-03T16:58:18.012Z,0.77
2023-02-03T17:00:47.882Z,0.90
2023-02-03T17:03:17.683Z,1.10
2023-02-03T17:05:45.911Z,0.90
2023-02-03T17:08:13.592Z,1.47
2023-02-03T17:10:42.084Z,1.40
2023-02-03T17:13:09.368Z,1.57
2023-02-03T17:15:41.175Z,1.83
2023-02-03T17:18:08.056Z,2.10
2023-02-03T17:20:35.057Z,2.23
2023-02-03T17:23:01.709Z,1.73
2023-02-03T17:25:29.128Z,1.47
2023-02-03T17:27:56.095Z,1.30
2023-02-03T17:30:22.774Z,1.17
2023-02-03T17:32:49.409Z,1.43
2023-02-03T17:35:16.214Z,1.10
2023-02-03T17:37:42.870Z,0.83
2023-02-03T17:53:59.873Z,0.70
2023-02-03T17:56:27.680Z,0.80
2023-02-03T17:58:58.506Z,0.70
2023-02-03T18:01:28.877Z,0.80
2023-02-03T18:03:57.207Z,0.73
2023-02-03T18:06:25.208Z,0.60
2023-02-03T18:08:52.015Z,0.70
2023-02-03T18:11:19.334Z,0.80
2023-02-03T18:13:48.269Z,0.77
2023-02-03T18:16:17.808Z,1.50
2023-02-03T18:18:45.311Z,0.60
2023-02-03T18:21:14.694Z,0.70
2023-02-03T18:23:41.995Z,0.70
2023-02-03T18:26:10.642Z,0.90
2023-02-03T18:28:38.104Z,0.70
2023-02-03T18:31:06.044Z,1.33
2023-02-03T18:33:32.988Z,0.63
2023-02-03T18:36:01.520Z,0.60
2023-02-03T18:38:30.534Z,0.80
2023-02-03T18:40:57.332Z,0.77
2023-02-03T18:43:24.148Z,0.83
2023-02-03T18:45:50.809Z,0.60
2023-02-03T18:48:17.544Z,0.70
2023-02-03T18:50:44.203Z,0.70
2023-02-03T18:53:13.880Z,0.70
2023-02-03T18:55:42.052Z,0.90
2023-02-03T18:58:08.970Z,0.90
2023-02-03T19:00:36.895Z,0.90
2023-02-03T19:03:04.094Z,1.00
2023-02-03T19:05:31.199Z,1.00
2023-02-03T19:08:01.007Z,1.10
2023-02-03T19:10:28.059Z,0.83
2023-02-03T19:12:54.878Z,0.90
2023-02-03T19:15:21.517Z,0.90
2023-02-03T19:17:48.571Z,0.90
2023-02-03T19:20:15.407Z,0.90
2023-02-03T19:22:42.124Z,1.00
2023-02-03T19:25:08.853Z,0.90
2023-02-03T19:27:39.038Z,1.17
2023-02-03T19:30:05.983Z,0.90
2023-02-03T19:32:32.592Z,1.00
2023-02-03T19:34:59.202Z,0.90
2023-02-03T19:37:25.864Z,0.90
2023-02-03T19:39:52.462Z,0.90
2023-02-03T19:42:19.117Z,0.90
2023-02-03T19:44:45.758Z,0.90
2023-02-03T19:47:12.430Z,0.97
2023-02-03T19:49:39.290Z,0.80
2023-02-03T19:52:08.002Z,0.80
2023-02-03T19:54:34.868Z,0.90
2023-02-03T19:57:01.851Z,0.80
2023-02-03T19:59:28.652Z,0.73
2023-02-03T20:01:57.988Z,1.63
2023-02-03T20:04:24.935Z,0.80
2023-02-03T20:06:51.567Z,0.80
2023-02-03T20:09:18.168Z,0.60
2023-02-03T20:11:44.922Z,0.80
2023-02-03T20:14:12.478Z,0.70
2023-02-03T20:16:39.090Z,0.70
2023-02-03T20:19:05.743Z,0.97
2023-02-03T20:21:32.471Z,0.70
2023-02-03T20:23:59.718Z,0.63
2023-02-03T20:26:26.395Z,0.60
2023-02-03T20:28:52.996Z,0.70
2023-02-03T20:31:19.687Z,0.60
2023-02-03T20:33:46.421Z,0.83
2023-02-03T20:36:12.998Z,0.70
2023-02-03T20:38:39.629Z,0.70
2023-02-03T20:41:10.394Z,0.80
2023-02-03T20:43:37.975Z,1.90
2023-02-03T20:46:15.548Z,0.70
2023-02-03T20:48:42.261Z,0.73
2023-02-03T20:51:13.038Z,0.70
2023-02-03T20:53:40.560Z,0.57
2023-02-03T20:56:15.265Z,0.70
2023-02-03T20:58:44.312Z,0.80
2023-02-03T21:01:21.974Z,0.53
2023-02-03T21:04:07.565Z,0.57
2023-02-03T21:06:35.109Z,0.73
2023-02-03T21:09:11.335Z,0.60
2023-02-03T21:11:37.950Z,0.70
2023-02-03T21:14:20.314Z,1.00
2023-02-03T21:16:47.727Z,0.70
2023-02-03T21:19:31.649Z,0.57
2023-02-03T21:21:59.029Z,0.70
2023-02-03T21:24:30.107Z,0.70
2023-02-03T21:26:57.919Z,0.73
2023-02-03T21:29:27.162Z,1.03
2023-02-03T21:31:54.404Z,1.07
2023-02-03T21:34:33.665Z,1.03
2023-02-03T21:37:20.520Z,1.20
2023-02-03T21:39:48.000Z,1.00
2023-02-03T21:42:40.969Z,1.63
2023-02-03T21:45:17.155Z,1.30
2023-02-03T21:47:46.275Z,1.10
2023-02-03T21:50:33.575Z,1.20
2023-02-03T21:53:09.435Z,1.70
2023-02-03T21:55:37.065Z,1.57
2023-02-03T21:58:21.462Z,1.33
2023-02-03T22:00:49.036Z,1.53
2023-02-03T22:03:27.780Z,1.73
2023-02-03T22:06:09.551Z,1.57
2023-02-03T22:08:38.983Z,1.40
2023-02-03T22:11:05.983Z,1.60
2023-02-03T22:13:32.739Z,2.30
2023-02-03T22:15:59.396Z,1.77
2023-02-03T22:18:26.086Z,1.70
2023-02-03T22:20:53.020Z,2.33
2023-02-03T22:23:20.556Z,2.30
2023-02-03T22:25:47.761Z,1.73
2023-02-03T22:28:20.169Z,1.70
2023-02-03T22:30:48.090Z,1.97
2023-02-03T22:33:15.344Z,1.97
2023-02-03T22:35:41.978Z,1.90
2023-02-03T22:38:08.613Z,1.80
2023-02-03T22:40:35.250Z,1.97
2023-02-03T22:43:02.245Z,1.90
2023-02-03T22:45:29.297Z,1.87
2023-02-03T22:48:00.240Z,2.33
2023-02-03T22:50:35.704Z,2.00
2023-02-03T22:53:04.274Z,1.97
2023-02-03T22:55:32.366Z,2.20
2023-02-03T22:57:59.399Z,2.10
2023-02-03T23:00:27.036Z,2.40
2023-02-03T23:02:54.122Z,2.43
2023-02-03T23:05:21.929Z,2.57
2023-02-03T23:07:49.741Z,3.43
2023-02-03T23:10:20.118Z,2.50
2023-02-03T23:12:52.112Z,2.23
2023-02-03T23:15:19.399Z,2.40
2023-02-03T23:17:48.662Z,2.60
2023-02-03T23:20:16.218Z,2.50
2023-02-03T23:22:43.884Z,3.07
2023-02-03T23:25:13.975Z,2.53
2023-02-03T23:27:43.348Z,2.70
2023-02-03T23:30:10.950Z,2.73
2023-02-03T23:32:37.884Z,2.27
2023-02-03T23:35:24.204Z,2.40
2023-02-03T23:37:51.072Z,2.63
2023-02-03T23:42:58.848Z,2.43
2023-02-03T23:45:27.816Z,2.50
2023-02-03T23:48:03.352Z,2.37
2023-02-03T23:50:38.530Z,2.30
2023-02-03T23:53:18.604Z,2.70
2023-02-03T23:56:50.762Z,2.30
2023-02-03T23:59:19.965Z,2.63
